Lumsden, Canada
Current Conditions -  °F | °C
As of 12:00 AM on Thursday 27 Nov 2014 (Local Time) from CYQR Reporting Station
Light Snow Light Snow  
Wind Chill: -12°   Ceiling: 1300
Heat Index:   Visibility: 15mi
Dew Point: -2°   Wind: 10mph
Humidity: 78%   Direction: 140°SE
Pressure: 30.3"   Gusts: NA
Location:  50.64°N, 104.87°W
Report Text: CYQR 270600Z 14009KT 15SM -SN OVC013 M16/M19 A3030 RMK NS8 SLP318
Loading
Personal Weather Stations






























Interactive Weather Map New forecast layout! Learn more

10-Day Weather Forecast

Advertisements
Track Severe Weather on mobile